sensor_id;sensor_type;location;lat;lon;timestamp;P1;durP1;ratioP1;P2;durP2;ratioP2
65533;SDS011;53640;55.838;37.184;2022-10-16T00:00:00;5.70;;;3.25;;
65533;SDS011;53640;55.838;37.184;2022-10-16T00:02:29;7.05;;;3.72;;
65533;SDS011;53640;55.838;37.184;2022-10-16T00:04:58;9.38;;;4.32;;
65533;SDS011;53640;55.838;37.184;2022-10-16T00:07:55;7.45;;;3.83;;
65533;SDS011;53640;55.838;37.184;2022-10-16T00:10:36;7.38;;;4.07;;
65533;SDS011;53640;55.838;37.184;2022-10-16T00:13:15;6.47;;;3.50;;
65533;SDS011;53640;55.838;37.184;2022-10-16T00:16:10;6.05;;;3.53;;
65533;SDS011;53640;55.838;37.184;2022-10-16T00:18:45;5.07;;;3.35;;
65533;SDS011;53640;55.838;37.184;2022-10-16T00:21:16;4.40;;;2.90;;
65533;SDS011;53640;55.838;37.184;2022-10-16T00:24:09;5.18;;;3.22;;
65533;SDS011;53640;55.838;37.184;2022-10-16T00:26:39;6.40;;;2.85;;
65533;SDS011;53640;55.838;37.184;2022-10-16T00:31:38;8.32;;;3.50;;
65533;SDS011;53640;55.838;37.184;2022-10-16T00:34:08;6.97;;;3.40;;
65533;SDS011;53640;55.838;37.184;2022-10-16T00:36:40;5.13;;;3.30;;
65533;SDS011;53640;55.838;37.184;2022-10-16T00:39:09;5.93;;;3.63;;
65533;SDS011;53640;55.838;37.184;2022-10-16T00:41:36;4.88;;;3.20;;
65533;SDS011;53640;55.838;37.184;2022-10-16T00:44:40;6.18;;;3.20;;
65533;SDS011;53640;55.838;37.184;2022-10-16T00:47:17;7.82;;;4.13;;
65533;SDS011;53640;55.838;37.184;2022-10-16T00:49:50;6.35;;;3.47;;
65533;SDS011;53640;55.838;37.184;2022-10-16T00:52:19;6.57;;;3.88;;
65533;SDS011;53640;55.838;37.184;2022-10-16T00:54:46;5.97;;;3.33;;
65533;SDS011;53640;55.838;37.184;2022-10-16T00:57:15;6.13;;;3.53;;
65533;SDS011;53640;55.838;37.184;2022-10-16T00:59:52;6.57;;;3.67;;
65533;SDS011;53640;55.838;37.184;2022-10-16T01:02:22;6.13;;;3.47;;
65533;SDS011;53640;55.838;37.184;2022-10-16T01:04:56;7.45;;;3.75;;
65533;SDS011;53640;55.838;37.184;2022-10-16T01:13:55;7.65;;;4.05;;
65533;SDS011;53640;55.838;37.184;2022-10-16T01:17:03;6.05;;;3.17;;
65533;SDS011;53640;55.838;37.184;2022-10-16T01:28:35;7.32;;;4.07;;
65533;SDS011;53640;55.838;37.184;2022-10-16T01:31:10;8.18;;;3.50;;
65533;SDS011;53640;55.838;37.184;2022-10-16T01:33:42;5.10;;;3.20;;
65533;SDS011;53640;55.838;37.184;2022-10-16T01:36:16;7.22;;;3.78;;
65533;SDS011;53640;55.838;37.184;2022-10-16T01:38:47;5.60;;;3.05;;
65533;SDS011;53640;55.838;37.184;2022-10-16T01:41:19;7.15;;;3.50;;
65533;SDS011;53640;55.838;37.184;2022-10-16T01:44:14;7.10;;;3.85;;
65533;SDS011;53640;55.838;37.184;2022-10-16T01:46:41;6.82;;;3.50;;
65533;SDS011;53640;55.838;37.184;2022-10-16T01:49:11;7.40;;;4.45;;
65533;SDS011;53640;55.838;37.184;2022-10-16T01:51:43;6.13;;;3.75;;
65533;SDS011;53640;55.838;37.184;2022-10-16T01:54:26;6.43;;;3.90;;
65533;SDS011;53640;55.838;37.184;2022-10-16T01:56:55;6.28;;;3.60;;
65533;SDS011;53640;55.838;37.184;2022-10-16T01:59:30;7.22;;;3.63;;
65533;SDS011;53640;55.838;37.184;2022-10-16T02:01:59;5.95;;;3.65;;
65533;SDS011;53640;55.838;37.184;2022-10-16T02:04:42;7.30;;;3.47;;
65533;SDS011;53640;55.838;37.184;2022-10-16T02:07:18;7.88;;;3.95;;
65533;SDS011;53640;55.838;37.184;2022-10-16T02:09:47;5.05;;;3.75;;
65533;SDS011;53640;55.838;37.184;2022-10-16T02:14:56;9.13;;;3.90;;
65533;SDS011;53640;55.838;37.184;2022-10-16T02:17:29;7.03;;;3.20;;
65533;SDS011;53640;55.838;37.184;2022-10-16T02:19:56;8.60;;;3.72;;
65533;SDS011;53640;55.838;37.184;2022-10-16T02:27:43;6.25;;;3.50;;
65533;SDS011;53640;55.838;37.184;2022-10-16T02:30:22;5.90;;;3.22;;
65533;SDS011;53640;55.838;37.184;2022-10-16T02:32:58;8.85;;;4.38;;
65533;SDS011;53640;55.838;37.184;2022-10-16T02:35:30;8.25;;;3.60;;
65533;SDS011;53640;55.838;37.184;2022-10-16T02:37:57;7.60;;;3.92;;
65533;SDS011;53640;55.838;37.184;2022-10-16T02:40:26;4.68;;;3.10;;
65533;SDS011;53640;55.838;37.184;2022-10-16T02:42:57;8.77;;;4.03;;
65533;SDS011;53640;55.838;37.184;2022-10-16T02:45:26;9.02;;;4.20;;
65533;SDS011;53640;55.838;37.184;2022-10-16T02:47:53;4.78;;;3.20;;
65533;SDS011;53640;55.838;37.184;2022-10-16T02:50:20;6.85;;;3.22;;
65533;SDS011;53640;55.838;37.184;2022-10-16T02:52:46;7.22;;;3.83;;
65533;SDS011;53640;55.838;37.184;2022-10-16T02:55:13;7.75;;;3.22;;
65533;SDS011;53640;55.838;37.184;2022-10-16T02:57:40;7.93;;;3.78;;
65533;SDS011;53640;55.838;37.184;2022-10-16T03:00:08;9.30;;;3.85;;
65533;SDS011;53640;55.838;37.184;2022-10-16T03:02:37;6.38;;;3.08;;
65533;SDS011;53640;55.838;37.184;2022-10-16T03:05:07;6.40;;;3.22;;
65533;SDS011;53640;55.838;37.184;2022-10-16T03:07:37;5.63;;;3.03;;
65533;SDS011;53640;55.838;37.184;2022-10-16T03:10:05;6.63;;;3.10;;
65533;SDS011;53640;55.838;37.184;2022-10-16T03:12:32;4.05;;;2.90;;
65533;SDS011;53640;55.838;37.184;2022-10-16T03:14:59;7.43;;;3.28;;
65533;SDS011;53640;55.838;37.184;2022-10-16T03:17:29;6.43;;;3.53;;
65533;SDS011;53640;55.838;37.184;2022-10-16T03:20:05;6.20;;;3.45;;
65533;SDS011;53640;55.838;37.184;2022-10-16T03:22:32;5.85;;;3.38;;
65533;SDS011;53640;55.838;37.184;2022-10-16T03:25:02;5.22;;;3.25;;
65533;SDS011;53640;55.838;37.184;2022-10-16T03:27:39;7.05;;;3.53;;
65533;SDS011;53640;55.838;37.184;2022-10-16T03:30:10;4.22;;;3.30;;
65533;SDS011;53640;55.838;37.184;2022-10-16T03:32:39;6.75;;;3.30;;
65533;SDS011;53640;55.838;37.184;2022-10-16T03:35:06;7.13;;;2.97;;
65533;SDS011;53640;55.838;37.184;2022-10-16T03:37:34;7.03;;;3.47;;
65533;SDS011;53640;55.838;37.184;2022-10-16T03:40:01;5.68;;;3.63;;
65533;SDS011;53640;55.838;37.184;2022-10-16T03:42:32;5.05;;;3.20;;
65533;SDS011;53640;55.838;37.184;2022-10-16T03:45:06;5.88;;;3.13;;
65533;SDS011;53640;55.838;37.184;2022-10-16T03:47:36;5.78;;;3.50;;
65533;SDS011;53640;55.838;37.184;2022-10-16T03:50:03;9.93;;;3.53;;
65533;SDS011;53640;55.838;37.184;2022-10-16T03:52:33;8.75;;;3.80;;
65533;SDS011;53640;55.838;37.184;2022-10-16T03:55:00;6.65;;;3.45;;
65533;SDS011;53640;55.838;37.184;2022-10-16T03:57:29;5.40;;;3.10;;
65533;SDS011;53640;55.838;37.184;2022-10-16T03:59:55;6.53;;;3.60;;
65533;SDS011;53640;55.838;37.184;2022-10-16T04:02:22;7.05;;;3.53;;
65533;SDS011;53640;55.838;37.184;2022-10-16T04:04:49;6.30;;;3.53;;
65533;SDS011;53640;55.838;37.184;2022-10-16T04:07:15;6.78;;;3.50;;
65533;SDS011;53640;55.838;37.184;2022-10-16T04:09:42;5.47;;;3.63;;
65533;SDS011;53640;55.838;37.184;2022-10-16T04:12:13;4.57;;;3.03;;
65533;SDS011;53640;55.838;37.184;2022-10-16T04:14:40;6.00;;;2.90;;
65533;SDS011;53640;55.838;37.184;2022-10-16T04:17:07;7.72;;;3.15;;
65533;SDS011;53640;55.838;37.184;2022-10-16T04:19:34;4.07;;;2.60;;
65533;SDS011;53640;55.838;37.184;2022-10-16T04:22:00;4.75;;;2.47;;
65533;SDS011;53640;55.838;37.184;2022-10-16T04:24:30;6.65;;;2.60;;
65533;SDS011;53640;55.838;37.184;2022-10-16T04:26:57;4.90;;;3.00;;
65533;SDS011;53640;55.838;37.184;2022-10-16T04:29:23;5.68;;;3.22;;
65533;SDS011;53640;55.838;37.184;2022-10-16T04:31:53;5.53;;;3.10;;
65533;SDS011;53640;55.838;37.184;2022-10-16T04:34:27;5.35;;;3.05;;
65533;SDS011;53640;55.838;37.184;2022-10-16T04:36:54;7.78;;;3.60;;
65533;SDS011;53640;55.838;37.184;2022-10-16T04:39:21;4.82;;;3.40;;
65533;SDS011;53640;55.838;37.184;2022-10-16T04:41:50;5.15;;;3.03;;
65533;SDS011;53640;55.838;37.184;2022-10-16T04:44:17;4.00;;;3.00;;
65533;SDS011;53640;55.838;37.184;2022-10-16T04:46:53;4.45;;;3.05;;
65533;SDS011;53640;55.838;37.184;2022-10-16T04:49:33;7.25;;;3.30;;
65533;SDS011;53640;55.838;37.184;2022-10-16T04:52:10;4.05;;;2.75;;
65533;SDS011;53640;55.838;37.184;2022-10-16T04:54:42;5.80;;;2.97;;
65533;SDS011;53640;55.838;37.184;2022-10-16T04:57:11;5.28;;;3.13;;
65533;SDS011;53640;55.838;37.184;2022-10-16T04:59:40;6.95;;;3.63;;
65533;SDS011;53640;55.838;37.184;2022-10-16T05:02:12;8.05;;;4.10;;
65533;SDS011;53640;55.838;37.184;2022-10-16T05:04:40;6.25;;;3.80;;
65533;SDS011;53640;55.838;37.184;2022-10-16T05:07:11;6.18;;;3.63;;
65533;SDS011;53640;55.838;37.184;2022-10-16T05:09:48;4.85;;;3.00;;
65533;SDS011;53640;55.838;37.184;2022-10-16T05:12:25;9.48;;;3.30;;
65533;SDS011;53640;55.838;37.184;2022-10-16T05:15:21;7.68;;;3.20;;
65533;SDS011;53640;55.838;37.184;2022-10-16T05:18:13;5.15;;;2.95;;
65533;SDS011;53640;55.838;37.184;2022-10-16T05:21:59;8.90;;;3.47;;
65533;SDS011;53640;55.838;37.184;2022-10-16T05:24:26;4.15;;;3.35;;
65533;SDS011;53640;55.838;37.184;2022-10-16T05:26:52;10.73;;;3.17;;
65533;SDS011;53640;55.838;37.184;2022-10-16T05:29:19;3.78;;;2.45;;
65533;SDS011;53640;55.838;37.184;2022-10-16T05:31:49;8.73;;;3.30;;
65533;SDS011;53640;55.838;37.184;2022-10-16T05:34:22;8.68;;;3.58;;
65533;SDS011;53640;55.838;37.184;2022-10-16T05:36:58;5.20;;;3.00;;
65533;SDS011;53640;55.838;37.184;2022-10-16T05:39:25;7.20;;;4.10;;
65533;SDS011;53640;55.838;37.184;2022-10-16T05:42:06;8.07;;;3.67;;
65533;SDS011;53640;55.838;37.184;2022-10-16T05:44:48;4.63;;;2.95;;
65533;SDS011;53640;55.838;37.184;2022-10-16T05:47:40;3.63;;;2.75;;
65533;SDS011;53640;55.838;37.184;2022-10-16T05:50:07;5.60;;;3.35;;
65533;SDS011;53640;55.838;37.184;2022-10-16T05:54:03;8.23;;;3.70;;
65533;SDS011;53640;55.838;37.184;2022-10-16T05:56:38;7.07;;;3.88;;
65533;SDS011;53640;55.838;37.184;2022-10-16T05:59:07;8.13;;;4.10;;
65533;SDS011;53640;55.838;37.184;2022-10-16T06:02:33;5.97;;;3.45;;
65533;SDS011;53640;55.838;37.184;2022-10-16T06:05:34;4.88;;;2.92;;
65533;SDS011;53640;55.838;37.184;2022-10-16T06:08:01;6.70;;;3.00;;
65533;SDS011;53640;55.838;37.184;2022-10-16T06:10:27;7.22;;;3.55;;
65533;SDS011;53640;55.838;37.184;2022-10-16T06:12:56;8.45;;;3.90;;
65533;SDS011;53640;55.838;37.184;2022-10-16T06:15:22;6.60;;;3.42;;
65533;SDS011;53640;55.838;37.184;2022-10-16T06:17:49;6.25;;;3.33;;
65533;SDS011;53640;55.838;37.184;2022-10-16T06:20:19;6.60;;;3.47;;
65533;SDS011;53640;55.838;37.184;2022-10-16T06:22:45;7.38;;;4.32;;
65533;SDS011;53640;55.838;37.184;2022-10-16T06:25:15;8.82;;;4.38;;
65533;SDS011;53640;55.838;37.184;2022-10-16T06:27:44;6.90;;;3.30;;
65533;SDS011;53640;55.838;37.184;2022-10-16T06:30:13;5.38;;;3.55;;
65533;SDS011;53640;55.838;37.184;2022-10-16T06:32:40;6.85;;;3.00;;
65533;SDS011;53640;55.838;37.184;2022-10-16T06:35:12;6.72;;;4.18;;
65533;SDS011;53640;55.838;37.184;2022-10-16T06:37:38;6.78;;;3.78;;
65533;SDS011;53640;55.838;37.184;2022-10-16T06:40:06;6.32;;;3.65;;
65533;SDS011;53640;55.838;37.184;2022-10-16T06:42:33;4.65;;;2.75;;
65533;SDS011;53640;55.838;37.184;2022-10-16T06:44:59;7.25;;;4.22;;
65533;SDS011;53640;55.838;37.184;2022-10-16T06:47:27;6.22;;;3.60;;
65533;SDS011;53640;55.838;37.184;2022-10-16T06:49:56;5.82;;;3.78;;
65533;SDS011;53640;55.838;37.184;2022-10-16T06:52:22;8.73;;;3.28;;
65533;SDS011;53640;55.838;37.184;2022-10-16T06:54:50;5.65;;;4.30;;
65533;SDS011;53640;55.838;37.184;2022-10-16T06:57:17;8.93;;;4.10;;
65533;SDS011;53640;55.838;37.184;2022-10-16T06:59:43;7.55;;;3.67;;
65533;SDS011;53640;55.838;37.184;2022-10-16T07:02:10;9.18;;;3.38;;
65533;SDS011;53640;55.838;37.184;2022-10-16T07:04:37;7.80;;;3.30;;
65533;SDS011;53640;55.838;37.184;2022-10-16T07:07:03;5.05;;;3.08;;
65533;SDS011;53640;55.838;37.184;2022-10-16T07:13:50;8.57;;;4.25;;
65533;SDS011;53640;55.838;37.184;2022-10-16T07:21:02;10.30;;;4.03;;
65533;SDS011;53640;55.838;37.184;2022-10-16T07:24:06;10.68;;;4.15;;
65533;SDS011;53640;55.838;37.184;2022-10-16T07:27:35;6.43;;;3.13;;
65533;SDS011;53640;55.838;37.184;2022-10-16T07:30:04;7.88;;;3.10;;
65533;SDS011;53640;55.838;37.184;2022-10-16T07:32:31;6.10;;;3.50;;
65533;SDS011;53640;55.838;37.184;2022-10-16T07:34:58;7.10;;;3.40;;
65533;SDS011;53640;55.838;37.184;2022-10-16T07:37:25;7.65;;;3.78;;
65533;SDS011;53640;55.838;37.184;2022-10-16T07:39:51;3.08;;;2.50;;
65533;SDS011;53640;55.838;37.184;2022-10-16T07:42:17;4.65;;;2.70;;
65533;SDS011;53640;55.838;37.184;2022-10-16T07:44:45;9.13;;;3.95;;
65533;SDS011;53640;55.838;37.184;2022-10-16T07:47:12;6.68;;;3.30;;
65533;SDS011;53640;55.838;37.184;2022-10-16T08:00:54;5.97;;;3.17;;
65533;SDS011;53640;55.838;37.184;2022-10-16T08:08:30;15.23;;;3.50;;
65533;SDS011;53640;55.838;37.184;2022-10-16T08:16:01;7.68;;;2.95;;
65533;SDS011;53640;55.838;37.184;2022-10-16T08:19:50;4.72;;;2.70;;
65533;SDS011;53640;55.838;37.184;2022-10-16T08:22:16;6.47;;;2.67;;
65533;SDS011;53640;55.838;37.184;2022-10-16T08:24:46;5.07;;;2.70;;
65533;SDS011;53640;55.838;37.184;2022-10-16T08:27:15;5.50;;;3.03;;
65533;SDS011;53640;55.838;37.184;2022-10-16T08:29:42;6.43;;;2.50;;
65533;SDS011;53640;55.838;37.184;2022-10-16T08:32:08;4.32;;;2.60;;
65533;SDS011;53640;55.838;37.184;2022-10-16T08:34:38;7.05;;;2.95;;
65533;SDS011;53640;55.838;37.184;2022-10-16T08:52:19;5.40;;;2.25;;
65533;SDS011;53640;55.838;37.184;2022-10-16T08:54:47;4.05;;;2.17;;
65533;SDS011;53640;55.838;37.184;2022-10-16T08:57:25;4.75;;;2.70;;
65533;SDS011;53640;55.838;37.184;2022-10-16T09:00:05;4.13;;;2.35;;
65533;SDS011;53640;55.838;37.184;2022-10-16T09:26:14;6.88;;;2.85;;
65533;SDS011;53640;55.838;37.184;2022-10-16T09:29:02;4.60;;;2.13;;
65533;SDS011;53640;55.838;37.184;2022-10-16T09:31:42;7.32;;;3.22;;
65533;SDS011;53640;55.838;37.184;2022-10-16T09:34:31;3.72;;;2.38;;
65533;SDS011;53640;55.838;37.184;2022-10-16T09:37:04;5.15;;;2.53;;
65533;SDS011;53640;55.838;37.184;2022-10-16T09:39:46;3.72;;;2.35;;
65533;SDS011;53640;55.838;37.184;2022-10-16T09:46:02;5.82;;;2.60;;
65533;SDS011;53640;55.838;37.184;2022-10-16T09:53:20;3.28;;;1.85;;
65533;SDS011;53640;55.838;37.184;2022-10-16T09:59:18;6.13;;;2.47;;
65533;SDS011;53640;55.838;37.184;2022-10-16T10:01:49;5.05;;;2.38;;
65533;SDS011;53640;55.838;37.184;2022-10-16T10:04:54;6.78;;;2.58;;
65533;SDS011;53640;55.838;37.184;2022-10-16T10:07:34;7.38;;;2.70;;
65533;SDS011;53640;55.838;37.184;2022-10-16T10:10:21;5.30;;;2.28;;
65533;SDS011;53640;55.838;37.184;2022-10-16T10:13:14;7.28;;;2.75;;
65533;SDS011;53640;55.838;37.184;2022-10-16T10:15:53;6.90;;;2.70;;
65533;SDS011;53640;55.838;37.184;2022-10-16T10:18:22;9.77;;;2.85;;
65533;SDS011;53640;55.838;37.184;2022-10-16T10:20:59;7.60;;;3.00;;
65533;SDS011;53640;55.838;37.184;2022-10-16T10:23:30;7.15;;;3.20;;
65533;SDS011;53640;55.838;37.184;2022-10-16T10:26:10;3.97;;;2.33;;
65533;SDS011;53640;55.838;37.184;2022-10-16T10:50:48;5.43;;;2.67;;
65533;SDS011;53640;55.838;37.184;2022-10-16T10:53:44;10.60;;;2.60;;
65533;SDS011;53640;55.838;37.184;2022-10-16T10:59:52;7.55;;;2.90;;
65533;SDS011;53640;55.838;37.184;2022-10-16T11:05:45;7.20;;;3.13;;
65533;SDS011;53640;55.838;37.184;2022-10-16T11:12:59;6.88;;;2.67;;
65533;SDS011;53640;55.838;37.184;2022-10-16T11:25:23;4.28;;;2.83;;
65533;SDS011;53640;55.838;37.184;2022-10-16T11:28:01;7.50;;;3.30;;
65533;SDS011;53640;55.838;37.184;2022-10-16T11:39:16;6.32;;;2.85;;
65533;SDS011;53640;55.838;37.184;2022-10-16T11:42:22;6.47;;;3.05;;
65533;SDS011;53640;55.838;37.184;2022-10-16T11:51:21;5.38;;;2.63;;
65533;SDS011;53640;55.838;37.184;2022-10-16T11:54:30;3.75;;;2.58;;
65533;SDS011;53640;55.838;37.184;2022-10-16T11:57:16;6.30;;;3.10;;
65533;SDS011;53640;55.838;37.184;2022-10-16T12:08:44;9.23;;;3.15;;
65533;SDS011;53640;55.838;37.184;2022-10-16T12:23:54;6.55;;;3.13;;
65533;SDS011;53640;55.838;37.184;2022-10-16T12:26:27;6.10;;;2.33;;
65533;SDS011;53640;55.838;37.184;2022-10-16T12:32:18;7.28;;;2.67;;
65533;SDS011;53640;55.838;37.184;2022-10-16T12:34:55;8.70;;;2.53;;
65533;SDS011;53640;55.838;37.184;2022-10-16T12:37:26;5.05;;;2.58;;
65533;SDS011;53640;55.838;37.184;2022-10-16T12:39:57;6.67;;;2.50;;
65533;SDS011;53640;55.838;37.184;2022-10-16T12:44:59;7.88;;;2.95;;
65533;SDS011;53640;55.838;37.184;2022-10-16T12:47:51;11.25;;;3.13;;
65533;SDS011;53640;55.838;37.184;2022-10-16T12:50:33;2.92;;;2.28;;
65533;SDS011;53640;55.838;37.184;2022-10-16T12:53:16;8.98;;;2.83;;
65533;SDS011;53640;55.838;37.184;2022-10-16T12:59:00;6.22;;;2.40;;
65533;SDS011;53640;55.838;37.184;2022-10-16T13:04:30;2.53;;;2.33;;
65533;SDS011;53640;55.838;37.184;2022-10-16T13:07:13;5.15;;;2.40;;
65533;SDS011;53640;55.838;37.184;2022-10-16T13:13:26;5.10;;;2.60;;
65533;SDS011;53640;55.838;37.184;2022-10-16T13:24:10;4.63;;;2.78;;
65533;SDS011;53640;55.838;37.184;2022-10-16T13:29:23;9.30;;;3.30;;
65533;SDS011;53640;55.838;37.184;2022-10-16T13:31:51;4.15;;;2.70;;
65533;SDS011;53640;55.838;37.184;2022-10-16T13:34:19;6.00;;;2.75;;
65533;SDS011;53640;55.838;37.184;2022-10-16T13:37:16;7.00;;;3.50;;
65533;SDS011;53640;55.838;37.184;2022-10-16T13:39:47;5.45;;;2.75;;
65533;SDS011;53640;55.838;37.184;2022-10-16T13:45:17;4.57;;;2.33;;
65533;SDS011;53640;55.838;37.184;2022-10-16T13:47:46;6.50;;;3.03;;
65533;SDS011;53640;55.838;37.184;2022-10-16T13:50:14;3.85;;;2.45;;
65533;SDS011;53640;55.838;37.184;2022-10-16T13:52:46;7.57;;;3.53;;
65533;SDS011;53640;55.838;37.184;2022-10-16T13:55:18;3.88;;;2.67;;
65533;SDS011;53640;55.838;37.184;2022-10-16T13:57:45;4.70;;;3.25;;
65533;SDS011;53640;55.838;37.184;2022-10-16T14:00:26;5.22;;;3.42;;
65533;SDS011;53640;55.838;37.184;2022-10-16T14:03:16;3.75;;;2.63;;
65533;SDS011;53640;55.838;37.184;2022-10-16T14:06:05;3.17;;;2.17;;
65533;SDS011;53640;55.838;37.184;2022-10-16T14:08:41;3.72;;;2.20;;
65533;SDS011;53640;55.838;37.184;2022-10-16T14:11:20;4.72;;;2.47;;
65533;SDS011;53640;55.838;37.184;2022-10-16T14:13:52;3.95;;;2.53;;
65533;SDS011;53640;55.838;37.184;2022-10-16T14:16:23;4.72;;;2.80;;
65533;SDS011;53640;55.838;37.184;2022-10-16T14:31:00;6.15;;;3.40;;
65533;SDS011;53640;55.838;37.184;2022-10-16T14:33:47;6.47;;;3.50;;
65533;SDS011;53640;55.838;37.184;2022-10-16T14:36:20;7.22;;;3.50;;
65533;SDS011;53640;55.838;37.184;2022-10-16T14:39:17;7.07;;;3.33;;
65533;SDS011;53640;55.838;37.184;2022-10-16T14:41:50;6.68;;;3.70;;
65533;SDS011;53640;55.838;37.184;2022-10-16T14:44:18;5.00;;;3.45;;
65533;SDS011;53640;55.838;37.184;2022-10-16T14:46:49;9.63;;;4.00;;
65533;SDS011;53640;55.838;37.184;2022-10-16T14:49:17;8.95;;;4.40;;
65533;SDS011;53640;55.838;37.184;2022-10-16T14:51:46;7.57;;;4.45;;
65533;SDS011;53640;55.838;37.184;2022-10-16T14:54:15;8.23;;;4.68;;
65533;SDS011;53640;55.838;37.184;2022-10-16T14:56:47;7.35;;;4.55;;
65533;SDS011;53640;55.838;37.184;2022-10-16T14:59:43;7.43;;;4.10;;
65533;SDS011;53640;55.838;37.184;2022-10-16T15:05:01;8.60;;;4.45;;
65533;SDS011;53640;55.838;37.184;2022-10-16T15:08:18;8.55;;;4.95;;
65533;SDS011;53640;55.838;37.184;2022-10-16T15:14:21;9.73;;;4.97;;
65533;SDS011;53640;55.838;37.184;2022-10-16T15:16:49;9.57;;;5.03;;
65533;SDS011;53640;55.838;37.184;2022-10-16T15:19:23;11.55;;;4.90;;
65533;SDS011;53640;55.838;37.184;2022-10-16T15:22:00;13.85;;;5.60;;
65533;SDS011;53640;55.838;37.184;2022-10-16T15:24:42;14.80;;;5.22;;
65533;SDS011;53640;55.838;37.184;2022-10-16T15:27:21;9.48;;;5.07;;
65533;SDS011;53640;55.838;37.184;2022-10-16T15:30:00;17.48;;;6.63;;
65533;SDS011;53640;55.838;37.184;2022-10-16T15:32:28;11.70;;;6.78;;
65533;SDS011;53640;55.838;37.184;2022-10-16T15:35:01;12.43;;;6.20;;
65533;SDS011;53640;55.838;37.184;2022-10-16T15:37:33;17.15;;;6.18;;
65533;SDS011;53640;55.838;37.184;2022-10-16T15:40:17;10.45;;;6.18;;
65533;SDS011;53640;55.838;37.184;2022-10-16T15:42:53;11.63;;;6.70;;
65533;SDS011;53640;55.838;37.184;2022-10-16T15:48:37;11.77;;;5.95;;
65533;SDS011;53640;55.838;37.184;2022-10-16T15:51:16;10.57;;;5.68;;
65533;SDS011;53640;55.838;37.184;2022-10-16T15:53:46;15.95;;;6.43;;
65533;SDS011;53640;55.838;37.184;2022-10-16T15:56:23;15.90;;;6.57;;
65533;SDS011;53640;55.838;37.184;2022-10-16T15:59:08;13.68;;;5.80;;
65533;SDS011;53640;55.838;37.184;2022-10-16T16:01:46;12.93;;;6.35;;
65533;SDS011;53640;55.838;37.184;2022-10-16T16:04:29;12.55;;;6.15;;
65533;SDS011;53640;55.838;37.184;2022-10-16T16:11:03;11.48;;;5.85;;
65533;SDS011;53640;55.838;37.184;2022-10-16T16:13:41;13.93;;;6.03;;
65533;SDS011;53640;55.838;37.184;2022-10-16T16:16:09;14.52;;;6.15;;
65533;SDS011;53640;55.838;37.184;2022-10-16T16:18:39;9.80;;;5.70;;
65533;SDS011;53640;55.838;37.184;2022-10-16T16:21:09;13.35;;;5.95;;
65533;SDS011;53640;55.838;37.184;2022-10-16T16:23:37;11.35;;;6.35;;
65533;SDS011;53640;55.838;37.184;2022-10-16T16:26:28;10.98;;;5.45;;
65533;SDS011;53640;55.838;37.184;2022-10-16T16:29:04;9.80;;;5.70;;
65533;SDS011;53640;55.838;37.184;2022-10-16T16:31:46;10.90;;;4.80;;
65533;SDS011;53640;55.838;37.184;2022-10-16T16:34:28;9.98;;;5.40;;
65533;SDS011;53640;55.838;37.184;2022-10-16T16:37:05;9.18;;;5.20;;
65533;SDS011;53640;55.838;37.184;2022-10-16T16:43:41;9.15;;;5.22;;
65533;SDS011;53640;55.838;37.184;2022-10-16T16:46:09;10.00;;;5.18;;
65533;SDS011;53640;55.838;37.184;2022-10-16T16:48:47;9.48;;;5.28;;
65533;SDS011;53640;55.838;37.184;2022-10-16T16:51:21;12.02;;;5.75;;
65533;SDS011;53640;55.838;37.184;2022-10-16T16:54:15;10.90;;;6.05;;
65533;SDS011;53640;55.838;37.184;2022-10-16T16:56:42;12.27;;;5.50;;
65533;SDS011;53640;55.838;37.184;2022-10-16T16:59:12;10.32;;;5.85;;
65533;SDS011;53640;55.838;37.184;2022-10-16T17:01:41;13.70;;;4.90;;
65533;SDS011;53640;55.838;37.184;2022-10-16T17:04:10;11.40;;;5.00;;
65533;SDS011;53640;55.838;37.184;2022-10-16T17:06:49;10.82;;;5.38;;
65533;SDS011;53640;55.838;37.184;2022-10-16T17:09:16;9.55;;;4.05;;
65533;SDS011;53640;55.838;37.184;2022-10-16T17:11:51;6.43;;;3.88;;
65533;SDS011;53640;55.838;37.184;2022-10-16T17:14:32;7.40;;;4.45;;
65533;SDS011;53640;55.838;37.184;2022-10-16T17:17:02;15.45;;;5.10;;
65533;SDS011;53640;55.838;37.184;2022-10-16T17:19:28;10.88;;;4.90;;
65533;SDS011;53640;55.838;37.184;2022-10-16T17:21:55;19.08;;;8.98;;
65533;SDS011;53640;55.838;37.184;2022-10-16T17:24:21;9.98;;;5.35;;
65533;SDS011;53640;55.838;37.184;2022-10-16T17:26:48;7.32;;;4.22;;
65533;SDS011;53640;55.838;37.184;2022-10-16T17:44:44;5.85;;;3.65;;
65533;SDS011;53640;55.838;37.184;2022-10-16T17:50:42;6.15;;;3.33;;
65533;SDS011;53640;55.838;37.184;2022-10-16T17:53:50;7.68;;;3.40;;
65533;SDS011;53640;55.838;37.184;2022-10-16T17:56:30;6.68;;;4.00;;
65533;SDS011;53640;55.838;37.184;2022-10-16T17:59:24;6.47;;;3.10;;
65533;SDS011;53640;55.838;37.184;2022-10-16T18:06:08;5.38;;;3.28;;
65533;SDS011;53640;55.838;37.184;2022-10-16T18:09:02;7.57;;;3.50;;
65533;SDS011;53640;55.838;37.184;2022-10-16T18:19:59;7.57;;;2.72;;
65533;SDS011;53640;55.838;37.184;2022-10-16T18:23:17;5.07;;;3.10;;
65533;SDS011;53640;55.838;37.184;2022-10-16T18:26:54;6.75;;;2.85;;
65533;SDS011;53640;55.838;37.184;2022-10-16T18:29:38;4.53;;;2.90;;
65533;SDS011;53640;55.838;37.184;2022-10-16T18:32:55;6.57;;;3.03;;
65533;SDS011;53640;55.838;37.184;2022-10-16T18:39:24;8.80;;;2.88;;
65533;SDS011;53640;55.838;37.184;2022-10-16T18:41:50;4.55;;;3.00;;
65533;SDS011;53640;55.838;37.184;2022-10-16T18:44:20;5.90;;;3.10;;
65533;SDS011;53640;55.838;37.184;2022-10-16T18:46:46;7.43;;;3.00;;
65533;SDS011;53640;55.838;37.184;2022-10-16T18:50:02;5.03;;;3.08;;
65533;SDS011;53640;55.838;37.184;2022-10-16T18:52:30;4.82;;;3.00;;
65533;SDS011;53640;55.838;37.184;2022-10-16T18:54:57;6.25;;;3.13;;
65533;SDS011;53640;55.838;37.184;2022-10-16T18:57:26;7.10;;;3.05;;
65533;SDS011;53640;55.838;37.184;2022-10-16T18:59:55;7.20;;;3.35;;
65533;SDS011;53640;55.838;37.184;2022-10-16T19:02:22;6.53;;;3.25;;
65533;SDS011;53640;55.838;37.184;2022-10-16T19:04:48;5.30;;;3.08;;
65533;SDS011;53640;55.838;37.184;2022-10-16T19:07:15;6.13;;;3.45;;
65533;SDS011;53640;55.838;37.184;2022-10-16T19:09:42;5.38;;;3.13;;
65533;SDS011;53640;55.838;37.184;2022-10-16T19:12:08;5.45;;;2.90;;
65533;SDS011;53640;55.838;37.184;2022-10-16T19:14:35;3.63;;;2.58;;
65533;SDS011;53640;55.838;37.184;2022-10-16T19:17:14;6.40;;;3.22;;
65533;SDS011;53640;55.838;37.184;2022-10-16T19:19:57;8.68;;;3.70;;
65533;SDS011;53640;55.838;37.184;2022-10-16T19:22:24;5.25;;;3.45;;
65533;SDS011;53640;55.838;37.184;2022-10-16T19:25:15;4.05;;;2.78;;
65533;SDS011;53640;55.838;37.184;2022-10-16T19:27:42;5.22;;;3.08;;
65533;SDS011;53640;55.838;37.184;2022-10-16T19:30:15;8.93;;;3.60;;
65533;SDS011;53640;55.838;37.184;2022-10-16T19:32:45;4.13;;;3.03;;
65533;SDS011;53640;55.838;37.184;2022-10-16T19:35:15;6.28;;;3.20;;
65533;SDS011;53640;55.838;37.184;2022-10-16T19:37:41;5.68;;;3.20;;
65533;SDS011;53640;55.838;37.184;2022-10-16T19:40:08;7.18;;;3.60;;
65533;SDS011;53640;55.838;37.184;2022-10-16T19:42:35;6.00;;;3.33;;
65533;SDS011;53640;55.838;37.184;2022-10-16T19:45:01;5.43;;;3.10;;
65533;SDS011;53640;55.838;37.184;2022-10-16T19:47:30;9.32;;;3.53;;
65533;SDS011;53640;55.838;37.184;2022-10-16T19:49:57;7.15;;;3.42;;
65533;SDS011;53640;55.838;37.184;2022-10-16T19:52:29;8.52;;;3.30;;
65533;SDS011;53640;55.838;37.184;2022-10-16T19:54:55;7.07;;;3.42;;
65533;SDS011;53640;55.838;37.184;2022-10-16T19:57:28;5.80;;;3.20;;
65533;SDS011;53640;55.838;37.184;2022-10-16T19:59:54;6.13;;;3.03;;